KRHI

Rhinelander-Oneida County Airport

Rhinelander, Wisconsin, USA
KRHI 202337Z 2100/2124 23006KT P6SM SCT250 FM210100 VRB03KT P6SM BKN200 FM211500 23005KT P6SM SKC
Issued Valid From Valid To
Apr-20 @ 23:37 UTC
(4 hours ago)
Apr-21 @ 00:00 UTC
(4 hours ago)
Apr-22 @ 00:00 UTC
(in 20 hours)
Expired Click to View Apr-21 @ 00:00 to Apr-21 @ 01:00
KRHI 202337Z 2100/2124 23006KT P6SM SCT250
Wind Visibility Clouds
230° at 6 knots Greater than 6 miles
  • Scattered at 25,000' AGL
From Apr-21 @ 01:00 to Apr-21 @ 15:00
FM210100 VRB03KT P6SM BKN200
Wind Visibility Clouds
Variable at 3 knots Greater than 6 miles
  • Broken at 20,000' AGL
From Apr-21 @ 15:00 to Apr-22 @ 00:00
FM211500 23005KT P6SM SKC
Wind Visibility Clouds
230° at 5 knots Greater than 6 miles
  • Clear skies
KRHI 202337Z 2100/2124 23006KT P6SM SCT250 FM210100 VRB03KT P6SM BKN200 FM211500 23005KT P6SM SKC
Issued Apr-20 @ 23:37 UTC
(4 hours ago)
Valid From Apr-21 @ 00:00 UTC
(4 hours ago)
Valid To Apr-22 @ 00:00 UTC
(in 20 hours)
Apr-21 @ 00:00 - Apr-21 @ 01:00
Wind Visibility
230° at 6 knots Greater than 6 miles
Clouds
  • Scattered at 25,000' AGL
From Apr-21 @ 01:00 - Apr-21 @ 15:00
Wind Visibility
Variable at 3 knots Greater than 6 miles
Clouds
  • Broken at 20,000' AGL
From Apr-21 @ 15:00 - Apr-22 @ 00:00
Wind Visibility
230° at 5 knots Greater than 6 miles
Clouds
  • Clear skies